createdAt,value
2023-08-04T00:02:17.857Z,13.48
2023-08-04T00:05:21.313Z,11.83
2023-08-04T00:08:24.821Z,10.48
2023-08-04T00:11:28.440Z,12.45
2023-08-04T00:14:32.193Z,10.32
2023-08-04T00:17:38.100Z,13.15
2023-08-04T00:20:41.788Z,23.43
2023-08-04T00:23:45.208Z,16.70
2023-08-04T00:26:48.842Z,19.65
2023-08-04T00:29:52.387Z,17.17
2023-08-04T00:32:56.316Z,13.63
2023-08-04T00:36:00.120Z,18.77
2023-08-04T00:39:05.320Z,17.38
2023-08-04T00:42:09.267Z,16.42
2023-08-04T00:45:12.876Z,12.90
2023-08-04T00:48:16.856Z,13.55
2023-08-04T00:51:20.712Z,15.60
2023-08-04T00:54:24.669Z,14.88
2023-08-04T00:57:28.288Z,21.83
2023-08-04T01:00:31.764Z,13.35
2023-08-04T01:03:36.312Z,17.40
2023-08-04T01:06:47.848Z,17.10
2023-08-04T01:09:57.478Z,13.23
2023-08-04T01:13:06.807Z,15.65
2023-08-04T01:16:10.738Z,21.85
2023-08-04T01:19:14.271Z,15.23
2023-08-04T01:22:18.228Z,19.23
2023-08-04T01:25:41.995Z,15.77
2023-08-04T01:28:48.420Z,14.65
2023-08-04T01:31:52.690Z,15.90
2023-08-04T01:34:56.548Z,18.05
2023-08-04T01:38:00.097Z,14.60
2023-08-04T01:41:03.612Z,13.68
2023-08-04T01:44:07.131Z,16.85
2023-08-04T01:47:10.644Z,14.68
2023-08-04T01:50:14.175Z,19.13
2023-08-04T01:53:17.612Z,18.13
2023-08-04T01:56:20.973Z,13.40
2023-08-04T01:59:24.345Z,17.73
2023-08-04T02:02:28.157Z,18.25
2023-08-04T02:05:35.242Z,17.27
2023-08-04T02:08:38.690Z,19.27
2023-08-04T02:11:43.257Z,22.48
2023-08-04T02:14:46.706Z,18.73
2023-08-04T02:17:50.129Z,18.40
2023-08-04T02:20:53.665Z,17.88
2023-08-04T02:23:57.505Z,14.73
2023-08-04T02:27:01.057Z,10.75
2023-08-04T02:30:04.883Z,14.07
2023-08-04T02:33:08.494Z,12.00
2023-08-04T02:36:13.342Z,7.63
2023-08-04T02:39:16.865Z,10.27
2023-08-04T02:42:20.478Z,8.68
2023-08-04T02:45:24.168Z,9.63
2023-08-04T02:48:27.745Z,9.18
2023-08-04T02:51:31.764Z,11.73
2023-08-04T02:54:35.130Z,11.10
2023-08-04T02:57:38.684Z,11.27
2023-08-04T03:00:42.801Z,10.05
2023-08-04T03:03:46.145Z,12.50
2023-08-04T03:06:49.676Z,11.48
2023-08-04T03:09:53.205Z,10.90
2023-08-04T03:12:56.729Z,8.55
2023-08-04T03:16:01.935Z,9.43
2023-08-04T03:19:05.517Z,7.45
2023-08-04T03:22:08.954Z,15.30
2023-08-04T03:25:12.521Z,7.30
2023-08-04T03:28:16.168Z,8.40
2023-08-04T03:31:19.749Z,11.48
2023-08-04T03:34:23.288Z,13.23
2023-08-04T03:37:26.745Z,8.82
2023-08-04T03:40:30.291Z,12.93
2023-08-04T03:43:33.746Z,9.45
2023-08-04T03:46:37.204Z,8.13
2023-08-04T03:49:40.990Z,8.02
2023-08-04T03:52:44.549Z,9.60
2023-08-04T03:55:47.921Z,11.30
2023-08-04T03:58:52.304Z,220.73
2023-08-04T04:01:55.972Z,213.60
2023-08-04T04:04:59.688Z,209.27
2023-08-04T04:08:03.333Z,71.18
2023-08-04T04:11:06.894Z,87.93
2023-08-04T04:14:13.098Z,282.70
2023-08-04T04:17:16.748Z,155.70
2023-08-04T04:20:20.152Z,155.98
2023-08-04T04:23:23.869Z,109.75
2023-08-04T04:26:27.448Z,11.30
2023-08-04T04:29:31.067Z,7.88
2023-08-04T04:32:34.635Z,6.65
2023-08-04T04:35:38.090Z,106.05
2023-08-04T04:38:41.598Z,103.97
2023-08-04T04:41:45.760Z,16.53
2023-08-04T04:44:49.648Z,172.85
2023-08-04T04:58:45.031Z,6.45
2023-08-04T05:01:48.703Z,6.28
2023-08-04T05:04:52.498Z,6.45
2023-08-04T05:07:56.131Z,7.67
2023-08-04T05:11:02.287Z,8.32
2023-08-04T05:14:06.083Z,8.50
2023-08-04T05:17:09.619Z,13.18
2023-08-04T05:20:14.273Z,9.95
2023-08-04T05:23:18.381Z,9.57
2023-08-04T05:26:22.101Z,6.85
2023-08-04T05:29:25.709Z,8.48
2023-08-04T05:32:29.746Z,8.35
2023-08-04T05:35:33.768Z,7.10
2023-08-04T05:38:37.459Z,7.57
2023-08-04T05:41:41.123Z,8.60
2023-08-04T05:44:44.830Z,5.22
2023-08-04T05:47:49.669Z,5.53
2023-08-04T05:50:58.831Z,5.15
2023-08-04T05:54:02.635Z,10.27
2023-08-04T05:57:06.524Z,6.10
2023-08-04T06:00:10.529Z,6.40
2023-08-04T06:03:14.354Z,5.10
2023-08-04T06:06:17.849Z,5.22
2023-08-04T06:09:21.451Z,8.47
2023-08-04T06:12:25.133Z,10.90
2023-08-04T06:15:28.893Z,8.13
2023-08-04T06:18:32.512Z,6.90
2023-08-04T06:21:37.817Z,8.02
2023-08-04T06:24:41.593Z,6.60
2023-08-04T06:27:45.332Z,9.55
2023-08-04T06:30:48.717Z,6.93
2023-08-04T06:33:52.432Z,5.57
2023-08-04T06:36:56.036Z,10.02
2023-08-04T06:39:59.654Z,8.53
2023-08-04T06:43:03.342Z,9.23
2023-08-04T06:46:06.885Z,6.25
2023-08-04T06:49:10.517Z,10.10
2023-08-04T06:52:14.281Z,10.50
2023-08-04T06:55:17.532Z,6.40
2023-08-04T06:58:21.115Z,6.13
2023-08-04T07:01:24.813Z,8.68
2023-08-04T07:04:28.531Z,7.15
2023-08-04T07:07:32.042Z,5.82
2023-08-04T07:10:37.348Z,6.93
2023-08-04T07:13:40.850Z,8.80
2023-08-04T07:16:48.049Z,11.60
2023-08-04T07:19:51.635Z,5.97
2023-08-04T07:22:55.270Z,13.02
2023-08-04T07:25:59.539Z,5.63
2023-08-04T07:29:06.213Z,7.30
2023-08-04T07:32:10.021Z,8.23
2023-08-04T07:35:13.686Z,6.13
2023-08-04T07:38:17.176Z,5.70
2023-08-04T07:41:26.334Z,5.07
2023-08-04T07:44:31.815Z,6.22
2023-08-04T07:47:35.402Z,6.03
2023-08-04T07:50:41.033Z,4.95
2023-08-04T07:53:44.353Z,4.93
2023-08-04T07:56:47.973Z,7.23
2023-08-04T07:59:52.650Z,5.35
2023-08-04T08:02:56.209Z,10.85
2023-08-04T08:06:00.200Z,9.73
2023-08-04T08:09:03.735Z,7.78
2023-08-04T08:12:08.094Z,9.13
2023-08-04T08:15:12.315Z,5.60
2023-08-04T08:18:16.247Z,8.77
2023-08-04T08:21:19.616Z,9.45
2023-08-04T08:24:23.169Z,13.73
2023-08-04T08:27:26.880Z,9.30
2023-08-04T08:30:30.790Z,7.10
2023-08-04T08:33:34.471Z,9.15
2023-08-04T08:36:38.218Z,7.30
2023-08-04T08:39:41.827Z,8.77
2023-08-04T08:42:45.376Z,6.23
2023-08-04T08:45:50.112Z,7.00
2023-08-04T08:48:59.372Z,8.30
2023-08-04T08:52:03.908Z,12.32
2023-08-04T08:55:08.148Z,9.32
2023-08-04T08:58:12.716Z,6.33
2023-08-04T09:01:19.642Z,7.45
2023-08-04T09:04:24.931Z,9.02
2023-08-04T09:07:28.932Z,8.45
2023-08-04T09:10:36.326Z,9.10
2023-08-04T09:13:44.259Z,6.00
2023-08-04T09:16:50.648Z,9.23
2023-08-04T09:19:54.069Z,10.88
2023-08-04T09:22:58.199Z,12.98
2023-08-04T09:26:01.819Z,8.52
2023-08-04T09:29:07.570Z,8.13
2023-08-04T09:32:15.346Z,7.65
2023-08-04T09:35:19.297Z,11.93
2023-08-04T09:38:25.846Z,11.70
2023-08-04T09:41:29.533Z,7.82
2023-08-04T09:44:38.922Z,6.73
2023-08-04T09:47:50.954Z,7.47
2023-08-04T09:51:17.693Z,4.95
2023-08-04T09:54:21.393Z,7.30
2023-08-04T09:57:25.830Z,5.88
2023-08-04T10:00:29.862Z,13.53
2023-08-04T10:03:35.500Z,10.93
2023-08-04T10:06:41.616Z,7.47
2023-08-04T10:09:46.462Z,10.27
2023-08-04T10:12:50.214Z,7.07
2023-08-04T10:15:55.708Z,6.83
2023-08-04T10:19:11.925Z,8.45
2023-08-04T10:22:15.518Z,10.55
2023-08-04T10:25:19.244Z,8.48
2023-08-04T10:28:23.619Z,6.07
2023-08-04T10:31:44.258Z,5.63
2023-08-04T10:34:52.910Z,4.97
2023-08-04T10:38:01.942Z,5.97
2023-08-04T10:41:08.580Z,8.88
2023-08-04T10:44:12.198Z,6.45
2023-08-04T10:47:15.915Z,5.57
2023-08-04T10:50:25.221Z,6.28
2023-08-04T10:53:29.309Z,7.97
2023-08-04T10:56:32.833Z,5.72
2023-08-04T10:59:36.372Z,7.78
2023-08-04T11:02:40.477Z,7.03
2023-08-04T11:05:44.441Z,6.40
2023-08-04T11:08:48.084Z,11.00
2023-08-04T11:11:52.049Z,6.05
2023-08-04T11:14:56.192Z,7.32
2023-08-04T11:18:00.116Z,8.40
2023-08-04T11:21:04.707Z,7.63
2023-08-04T11:24:11.998Z,9.15
2023-08-04T11:27:17.281Z,10.45
2023-08-04T11:30:20.849Z,8.85
2023-08-04T11:33:24.259Z,6.20
2023-08-04T11:36:29.856Z,7.28
2023-08-04T11:39:33.340Z,7.70
2023-08-04T11:42:39.500Z,8.00
2023-08-04T11:45:50.209Z,6.10
2023-08-04T11:49:06.259Z,8.10
2023-08-04T11:52:14.138Z,8.70
2023-08-04T11:55:18.232Z,8.50
2023-08-04T11:58:34.171Z,6.47
2023-08-04T12:01:39.057Z,11.05
2023-08-04T12:04:44.723Z,8.83
2023-08-04T12:07:48.473Z,7.45
2023-08-04T12:11:04.763Z,6.95
2023-08-04T12:14:12.590Z,7.10
2023-08-04T12:17:16.421Z,7.78
2023-08-04T12:20:20.415Z,7.40
2023-08-04T12:23:24.256Z,9.00
2023-08-04T12:26:27.905Z,10.18
2023-08-04T12:29:31.467Z,16.13
2023-08-04T12:32:35.230Z,11.40
2023-08-04T12:35:38.866Z,11.77
2023-08-04T12:38:42.366Z,10.98
2023-08-04T12:41:46.040Z,10.27
2023-08-04T12:44:51.027Z,9.45
2023-08-04T12:47:55.324Z,8.27
2023-08-04T12:50:59.024Z,15.37
2023-08-04T12:54:02.698Z,14.82
2023-08-04T12:57:09.575Z,14.18
2023-08-04T13:00:17.229Z,15.13
2023-08-04T13:03:22.265Z,13.63
2023-08-04T13:06:26.146Z,15.10
2023-08-04T13:09:29.843Z,20.15
2023-08-04T13:12:33.728Z,14.32
2023-08-04T13:15:37.619Z,13.65
2023-08-04T13:18:41.424Z,13.48
2023-08-04T13:21:45.027Z,11.00
2023-08-04T13:24:49.023Z,16.02
2023-08-04T13:27:52.569Z,16.45
2023-08-04T13:30:56.124Z,22.42
2023-08-04T13:33:59.535Z,19.42
2023-08-04T13:37:03.178Z,22.03
2023-08-04T13:40:07.322Z,25.52
2023-08-04T13:43:11.232Z,23.75
2023-08-04T13:46:15.848Z,23.23
2023-08-04T13:49:19.388Z,25.75
2023-08-04T13:52:23.367Z,21.90
2023-08-04T13:55:26.948Z,17.73
2023-08-04T13:58:30.850Z,14.00
2023-08-04T14:01:34.428Z,16.60
2023-08-04T14:04:38.783Z,17.15
2023-08-04T14:07:45.595Z,18.40
2023-08-04T14:10:49.200Z,17.70
2023-08-04T14:13:52.803Z,16.77
2023-08-04T14:16:56.460Z,18.77
2023-08-04T14:20:07.031Z,18.67
2023-08-04T14:23:10.854Z,20.53
2023-08-04T14:26:14.491Z,18.65
2023-08-04T14:29:19.364Z,21.77
2023-08-04T14:32:23.068Z,18.38
2023-08-04T14:35:26.788Z,21.17
2023-08-04T14:38:30.369Z,22.17
2023-08-04T14:41:33.934Z,16.35
2023-08-04T14:44:38.115Z,18.02
2023-08-04T14:47:41.787Z,21.25
2023-08-04T14:50:45.710Z,21.02
2023-08-04T14:53:49.212Z,15.80
2023-08-04T14:56:52.884Z,17.67
2023-08-04T14:59:56.342Z,11.63
2023-08-04T15:02:59.982Z,15.63
2023-08-04T15:06:17.520Z,12.25
2023-08-04T15:09:21.297Z,12.77
2023-08-04T15:12:26.316Z,12.23
2023-08-04T15:15:29.733Z,9.20
2023-08-04T15:18:33.812Z,9.75
2023-08-04T15:21:37.449Z,12.18
2023-08-04T15:24:41.005Z,11.23
2023-08-04T15:27:44.818Z,13.07
2023-08-04T15:30:48.476Z,12.15
2023-08-04T15:33:52.291Z,13.52
2023-08-04T15:36:55.777Z,17.15
2023-08-04T15:39:59.348Z,11.90
2023-08-04T15:43:03.016Z,12.90
2023-08-04T15:46:07.128Z,12.88
2023-08-04T15:49:10.769Z,10.57
2023-08-04T15:52:14.400Z,13.00
2023-08-04T15:55:17.871Z,11.23
2023-08-04T15:58:21.541Z,9.75
2023-08-04T16:01:25.225Z,9.80
2023-08-04T16:04:28.798Z,9.85
2023-08-04T16:07:32.480Z,10.00
2023-08-04T16:10:36.372Z,6.40
2023-08-04T16:13:39.988Z,7.90
2023-08-04T16:16:43.716Z,6.50
2023-08-04T16:19:53.101Z,9.77
2023-08-04T16:22:58.858Z,6.38
2023-08-04T16:26:04.135Z,8.27
2023-08-04T16:29:07.521Z,7.18
2023-08-04T16:32:11.135Z,9.65
2023-08-04T16:35:14.720Z,7.82
2023-08-04T16:38:18.267Z,7.68
2023-08-04T16:41:22.061Z,8.13
2023-08-04T16:44:25.712Z,8.50
2023-08-04T16:47:29.238Z,10.88
2023-08-04T16:50:35.339Z,10.27
2023-08-04T16:53:38.821Z,7.35
2023-08-04T16:56:42.385Z,14.87
2023-08-04T16:59:49.515Z,12.55
2023-08-04T17:02:53.601Z,9.10
2023-08-04T17:05:57.438Z,8.50
2023-08-04T17:09:00.959Z,10.25
2023-08-04T17:12:04.737Z,9.00
2023-08-04T17:15:10.913Z,13.63
2023-08-04T17:18:14.707Z,8.65
2023-08-04T17:21:18.382Z,13.52
2023-08-04T17:24:22.943Z,7.03
2023-08-04T17:27:26.675Z,8.30
2023-08-04T17:30:30.293Z,10.43
2023-08-04T17:33:34.685Z,10.73
2023-08-04T17:36:39.151Z,12.15
2023-08-04T17:39:42.788Z,10.65
2023-08-04T17:42:46.250Z,13.47
2023-08-04T17:45:50.418Z,10.40
2023-08-04T17:48:53.810Z,9.25
2023-08-04T17:51:57.386Z,7.50
2023-08-04T17:55:00.972Z,8.65
2023-08-04T17:58:04.716Z,6.87
2023-08-04T18:01:08.860Z,8.25
2023-08-04T18:04:13.815Z,9.02
2023-08-04T18:07:17.791Z,10.43
2023-08-04T18:10:21.494Z,8.80
2023-08-04T18:13:25.022Z,10.90
2023-08-04T18:16:28.790Z,7.97
2023-08-04T18:19:32.243Z,7.25
2023-08-04T18:22:36.074Z,9.88
2023-08-04T18:25:42.561Z,8.23
2023-08-04T18:28:46.128Z,12.87
2023-08-04T18:31:49.710Z,9.00
2023-08-04T18:34:53.530Z,10.85
2023-08-04T18:37:56.874Z,8.27
2023-08-04T18:41:05.549Z,11.38
2023-08-04T18:44:11.053Z,9.90
2023-08-04T18:47:14.574Z,7.57
2023-08-04T18:50:18.338Z,10.00
2023-08-04T18:53:22.123Z,9.48
2023-08-04T18:56:26.759Z,11.52
2023-08-04T18:59:30.222Z,7.93
2023-08-04T19:02:34.043Z,9.10
2023-08-04T19:05:37.829Z,8.10
2023-08-04T19:08:41.414Z,8.55
2023-08-04T19:11:45.035Z,9.55
2023-08-04T19:14:48.470Z,9.87
2023-08-04T19:17:52.225Z,8.70
2023-08-04T19:20:55.789Z,9.80
2023-08-04T19:23:59.433Z,10.15
2023-08-04T19:27:02.986Z,9.55
2023-08-04T19:30:07.532Z,10.33
2023-08-04T19:33:10.990Z,10.48
2023-08-04T19:36:14.500Z,10.57
2023-08-04T19:39:17.937Z,7.95
2023-08-04T19:42:21.536Z,10.13
2023-08-04T19:45:25.188Z,8.70
2023-08-04T19:48:29.264Z,7.88
2023-08-04T19:51:32.974Z,7.05
2023-08-04T19:54:36.644Z,6.43
2023-08-04T19:57:40.222Z,5.97
2023-08-04T20:00:43.696Z,7.87
2023-08-04T20:03:47.860Z,7.32
2023-08-04T20:06:51.733Z,6.47
2023-08-04T20:09:55.345Z,7.95
2023-08-04T20:12:58.985Z,8.10
2023-08-04T20:16:21.211Z,8.87
2023-08-04T20:19:25.014Z,6.72
2023-08-04T20:22:29.500Z,8.07
2023-08-04T20:25:35.973Z,6.97
2023-08-04T20:28:40.216Z,9.75
2023-08-04T20:31:43.783Z,9.27
2023-08-04T20:34:47.449Z,7.20
2023-08-04T20:37:51.050Z,8.50
2023-08-04T20:41:19.050Z,7.40
2023-08-04T20:44:22.589Z,8.60
2023-08-04T20:47:26.313Z,8.10
2023-08-04T20:50:29.966Z,9.02
2023-08-04T20:53:38.853Z,7.40
2023-08-04T20:56:42.515Z,7.10
2023-08-04T20:59:46.049Z,7.28
2023-08-04T21:02:49.644Z,8.30
2023-08-04T21:05:53.373Z,8.23
2023-08-04T21:08:56.845Z,8.68
2023-08-04T21:12:00.420Z,7.72
2023-08-04T21:15:05.820Z,8.05
2023-08-04T21:18:09.580Z,8.93
2023-08-04T21:21:13.246Z,6.10
2023-08-04T21:24:16.822Z,6.45
2023-08-04T21:27:20.542Z,6.25
2023-08-04T21:30:24.251Z,6.43
2023-08-04T21:33:27.755Z,7.73
2023-08-04T21:36:32.003Z,7.30
2023-08-04T21:39:35.611Z,9.48
2023-08-04T21:42:39.357Z,8.90
2023-08-04T21:45:43.069Z,9.93
2023-08-04T21:48:46.662Z,6.10
2023-08-04T21:51:50.262Z,9.13
2023-08-04T21:54:57.280Z,16.15
2023-08-04T21:58:00.966Z,10.00
2023-08-04T22:01:12.583Z,8.73
2023-08-04T22:04:16.220Z,8.67
2023-08-04T22:07:19.837Z,8.55
2023-08-04T22:10:23.372Z,8.07
2023-08-04T22:13:27.532Z,7.35
2023-08-04T22:16:31.011Z,9.00
2023-08-04T22:19:34.537Z,13.47
2023-08-04T22:22:38.274Z,11.10
2023-08-04T22:25:41.871Z,12.13
2023-08-04T22:28:45.479Z,11.25
2023-08-04T22:31:49.204Z,11.27
2023-08-04T22:34:53.207Z,11.43
2023-08-04T22:37:56.700Z,9.10
2023-08-04T22:41:01.848Z,14.40
2023-08-04T22:44:05.634Z,11.57
2023-08-04T22:47:09.364Z,8.43
2023-08-04T22:50:12.950Z,8.00
2023-08-04T22:53:16.377Z,8.80
2023-08-04T22:56:19.903Z,10.85
2023-08-04T22:59:23.559Z,9.55
2023-08-04T23:02:27.479Z,13.50
2023-08-04T23:05:34.572Z,9.93
2023-08-04T23:08:38.259Z,12.30
2023-08-04T23:11:41.843Z,9.30
2023-08-04T23:14:45.373Z,12.02
2023-08-04T23:17:49.141Z,10.57
2023-08-04T23:20:52.905Z,11.57
2023-08-04T23:23:56.526Z,11.02
2023-08-04T23:26:59.988Z,11.38
2023-08-04T23:30:03.436Z,14.82
2023-08-04T23:33:07.019Z,9.77
2023-08-04T23:36:10.897Z,12.40
2023-08-04T23:39:15.238Z,14.82
2023-08-04T23:42:18.670Z,10.07
2023-08-04T23:45:22.121Z,13.48
2023-08-04T23:48:25.871Z,20.38
2023-08-04T23:51:29.392Z,9.73
2023-08-04T23:54:33.155Z,15.02
2023-08-04T23:57:37.006Z,12.77
